Time;durP1;ratioP1;P1;durP2;ratioP2;P2;SDS_P1;SDS_P2;PMS_P1;PMS_P2;Temp;Humidity;BMP_temperature;BMP_pressure;BME280_temperature;BME280_humidity;BME280_pressure;Samples;Min_cycle;Max_cycle;Signal;HPM_P1;HPM_P2
2023/03/31 00:01:23;;;;;;;16.23;8.70;;;;;;;11.30;42.08;94886.56;4968232;28;20237;-66
2023/03/31 00:03:49;;;;;;;11.43;7.45;;;;;;;11.21;42.34;94875.19;4979199;28;20220;-65
2023/03/31 00:06:16;;;;;;;12.15;8.10;;;;;;;11.14;42.60;94878.59;4963604;28;20216;-66
2023/03/31 00:08:43;;;;;;;14.80;8.52;;;;;;;11.07;43.00;94874.97;4970804;28;20184;-66
2023/03/31 00:11:08;;;;;;;12.90;7.50;;;;;;;11.08;42.73;94881.88;4969349;28;20185;-65
2023/03/31 00:13:35;;;;;;;13.38;7.45;;;;;;;10.97;43.12;94875.09;4960985;28;20224;-67
2023/03/31 00:16:06;;;;;;;13.88;7.65;;;;;;;10.92;43.30;94878.19;4972650;28;20228;-64
2023/03/31 00:18:33;;;;;;;13.27;7.85;;;;;;;10.88;43.14;94882.13;4963337;28;20220;-65
2023/03/31 00:21:23;;;;;;;12.00;8.00;;;;;;;10.85;43.55;94871.88;4961833;28;20217;-69
2023/03/31 00:24:03;;;;;;;13.00;7.80;;;;;;;10.93;43.12;94869.31;4960547;28;20228;-70
2023/03/31 00:26:28;;;;;;;12.25;7.40;;;;;;;10.80;42.80;94866.28;4985109;28;20177;-65
2023/03/31 00:28:55;;;;;;;9.80;7.20;;;;;;;10.87;43.56;94879.63;4972389;28;20301;-64
2023/03/31 00:31:21;;;;;;;12.55;7.75;;;;;;;10.84;43.44;94872.88;4969295;28;20212;-71
2023/03/31 00:33:47;;;;;;;11.25;8.18;;;;;;;10.85;43.59;94877.16;4992848;28;20217;-69
2023/03/31 00:36:19;;;;;;;11.60;7.18;;;;;;;10.76;44.06;94870.22;4968623;28;20213;-68
2023/03/31 00:38:50;;;;;;;12.30;7.80;;;;;;;10.52;44.82;94870.88;4971446;28;20527;-70
2023/03/31 00:41:16;;;;;;;12.10;7.78;;;;;;;10.67;44.69;94860.63;4962960;28;20185;-73
2023/03/31 00:44:07;;;;;;;12.23;7.82;;;;;;;10.69;44.47;94856.03;4995101;28;20232;-70
2023/03/31 00:46:44;;;;;;;12.53;7.47;;;;;;;10.68;44.88;94870.97;4960249;28;20293;-65
2023/03/31 00:49:44;;;;;;;14.85;8.15;;;;;;;10.67;44.59;94864.09;4966176;28;20704;-71
2023/03/31 00:52:15;;;;;;;12.18;7.78;;;;;;;10.54;44.13;94859.25;4971259;28;20229;-66
2023/03/31 00:54:43;;;;;;;13.07;8.07;;;;;;;10.60;44.27;94855.16;4971800;28;20252;-65
2023/03/31 00:57:09;;;;;;;15.98;9.35;;;;;;;10.62;44.51;94857.66;4971793;28;20235;-70
2023/03/31 00:59:39;;;;;;;13.85;8.55;;;;;;;10.77;44.00;94849.03;4966043;28;20203;-69
2023/03/31 01:02:05;;;;;;;12.93;8.75;;;;;;;10.82;44.35;94849.38;4961565;28;20241;-71
2023/03/31 01:04:35;;;;;;;31.27;11.90;;;;;;;10.90;43.36;94837.22;4998681;28;20303;-72
2023/03/31 01:07:15;;;;;;;18.42;9.73;;;;;;;10.86;43.60;94841.97;4979166;28;20311;-73
2023/03/31 01:09:46;;;;;;;21.65;10.35;;;;;;;10.91;43.70;94833.63;4971724;28;20227;-68
2023/03/31 01:12:14;;;;;;;23.67;10.85;;;;;;;10.96;43.73;94831.31;4964539;28;20256;-70
2023/03/31 01:14:40;;;;;;;21.45;10.70;;;;;;;11.02;43.74;94833.34;4972332;28;20184;-69
2023/03/31 01:17:08;;;;;;;24.45;11.32;;;;;;;10.84;43.56;94835.22;4969508;28;20258;-73
2023/03/31 01:20:13;;;;;;;22.25;11.07;;;;;;;10.98;43.10;94832.00;4965132;28;20221;-69
2023/03/31 01:22:51;;;;;;;25.77;12.23;;;;;;;11.02;43.63;94826.25;4959322;28;20263;-72
2023/03/31 01:25:51;;;;;;;27.50;13.20;;;;;;;10.85;43.78;94837.69;4964490;28;20228;-67
2023/03/31 01:28:22;;;;;;;25.45;12.45;;;;;;;10.87;44.06;94843.63;4991519;28;20224;-71
2023/03/31 01:31:06;;;;;;;26.00;12.05;;;;;;;10.97;44.11;94839.06;4990164;28;20275;-70
2023/03/31 01:33:46;;;;;;;27.60;13.37;;;;;;;10.98;44.11;94839.88;4993413;28;20221;-67
2023/03/31 01:36:27;;;;;;;27.77;12.88;;;;;;;10.88;44.62;94844.44;4993326;28;20596;-72
2023/03/31 01:39:30;;;;;;;22.08;10.82;;;;;;;10.83;45.00;94844.94;4988650;28;20224;-72
2023/03/31 01:42:14;;;;;;;28.17;14.48;;;;;;;10.91;44.36;94867.81;4935788;28;20228;-68
2023/03/31 01:45:02;;;;;;;24.57;12.83;;;;;;;10.87;44.41;94862.03;4966544;28;20221;-67
2023/03/31 01:47:43;;;;;;;29.40;13.48;;;;;;;10.93;44.23;94858.78;4966670;28;20319;-69
2023/03/31 01:50:26;;;;;;;26.33;13.30;;;;;;;10.97;44.17;94865.38;4932330;29;20261;-67
2023/03/31 01:53:16;;;;;;;24.52;11.95;;;;;;;11.06;43.58;94873.31;4949607;29;20285;-67
2023/03/31 01:55:59;;;;;;;20.50;12.05;;;;;;;11.09;43.51;94873.81;4913168;29;20230;-67
2023/03/31 01:58:31;;;;;;;27.42;13.38;;;;;;;10.85;44.02;94877.16;4917538;29;20225;-72
2023/03/31 02:01:29;;;;;;;19.42;10.82;;;;;;;10.85;43.94;94874.50;4915977;29;20226;-66
2023/03/31 02:04:07;;;;;;;21.10;10.18;;;;;;;11.00;43.47;94864.25;4916770;29;20331;-71
2023/03/31 02:06:40;;;;;;;21.07;11.80;;;;;;;11.09;43.29;94872.97;4900085;29;20232;-71
2023/03/31 02:09:12;;;;;;;24.25;11.75;;;;;;;11.03;44.13;94874.44;4916451;29;20291;-67
2023/03/31 02:11:40;;;;;;;21.83;12.05;;;;;;;10.86;44.68;94878.81;4933586;29;20209;-67
2023/03/31 02:14:10;;;;;;;21.00;11.43;;;;;;;10.90;44.58;94874.88;4917012;29;20202;-67
2023/03/31 02:16:40;;;;;;;19.92;10.68;;;;;;;10.91;44.75;94876.53;4915007;29;20240;-73
2023/03/31 02:19:09;;;;;;;22.80;10.45;;;;;;;11.01;44.40;94890.41;4878964;29;20258;-66
2023/03/31 02:21:38;;;;;;;21.17;10.75;;;;;;;10.72;45.72;94871.47;4917767;29;20312;-67
2023/03/31 02:24:11;;;;;;;19.95;11.52;;;;;;;10.77;47.29;94890.25;4917819;29;20233;-66
2023/03/31 02:26:55;;;;;;;22.25;10.18;;;;;;;10.69;46.28;94909.47;4932530;29;20197;-66
2023/03/31 02:29:21;;;;;;;18.38;10.23;;;;;;;10.72;46.71;94900.41;4931455;29;20193;-66
2023/03/31 02:31:54;;;;;;;19.45;10.88;;;;;;;10.78;46.50;94907.69;4918701;28;20283;-73
2023/03/31 02:34:20;;;;;;;23.88;10.48;;;;;;;10.80;46.64;94911.00;4975990;28;20247;-73
2023/03/31 02:36:47;;;;;;;18.10;9.77;;;;;;;10.87;47.05;94905.94;4965190;28;20282;-73
2023/03/31 02:39:24;;;;;;;21.05;9.45;;;;;;;10.80;46.93;94911.81;4968423;28;20232;-73
2023/03/31 02:41:50;;;;;;;17.00;8.73;;;;;;;10.96;46.92;94926.03;4958346;28;20300;-71
2023/03/31 02:44:16;;;;;;;17.55;8.93;;;;;;;10.92;47.84;94915.00;4969485;28;20295;-67
2023/03/31 02:46:43;;;;;;;13.82;8.27;;;;;;;10.89;49.87;94917.13;4971069;28;20227;-67
2023/03/31 02:49:10;;;;;;;16.42;7.30;;;;;;;10.90;51.01;94908.25;4957405;28;20598;-70
2023/03/31 02:52:15;;;;;;;10.45;5.07;;;;;;;10.97;52.07;94928.53;4970055;28;20323;-66
2023/03/31 02:54:49;;;;;;;6.47;3.83;;;;;;;10.80;53.36;94903.13;4972305;28;20239;-68
2023/03/31 02:57:24;;;;;;;4.88;2.85;;;;;;;10.84;52.22;94901.00;4962226;28;20224;-66
2023/03/31 02:59:52;;;;;;;4.18;2.15;;;;;;;10.84;52.72;94898.34;4991320;28;20231;-66
2023/03/31 03:02:42;;;;;;;4.63;2.40;;;;;;;10.81;51.78;94891.59;4989645;28;20212;-66
2023/03/31 03:05:34;;;;;;;6.47;2.75;;;;;;;10.76;52.43;94878.09;4990823;28;20236;-66
2023/03/31 03:08:18;;;;;;;3.00;1.95;;;;;;;10.92;51.63;94875.53;4974374;28;20220;-66
2023/03/31 03:10:58;;;;;;;3.05;2.17;;;;;;;10.76;51.97;94876.28;4972083;28;20328;-66
2023/03/31 03:13:36;;;;;;;4.38;2.42;;;;;;;10.94;52.75;94865.69;4962169;28;20627;-66
2023/03/31 03:16:17;;;;;;;3.45;1.95;;;;;;;11.08;52.42;94871.34;4968895;28;20254;-74
2023/03/31 03:18:56;;;;;;;3.35;2.10;;;;;;;11.11;53.69;94860.50;4958423;28;20227;-66
2023/03/31 03:21:21;;;;;;;4.72;2.40;;;;;;;11.14;55.78;94855.72;4967233;28;20227;-68
2023/03/31 03:23:47;;;;;;;3.88;2.47;;;;;;;11.07;56.75;94846.03;4974018;28;20215;-69
2023/03/31 03:26:12;;;;;;;3.08;2.20;;;;;;;11.01;57.51;94840.41;4971497;28;20204;-72
2023/03/31 03:28:38;;;;;;;6.85;2.70;;;;;;;10.96;55.57;94847.97;4973462;28;20240;-66
2023/03/31 03:31:03;;;;;;;3.47;2.50;;;;;;;11.02;57.00;94847.31;4969780;28;20234;-66
2023/03/31 03:33:29;;;;;;;5.13;2.70;;;;;;;11.09;56.08;94838.78;4969918;28;20231;-72
2023/03/31 03:35:54;;;;;;;4.65;3.25;;;;;;;11.12;56.59;94838.44;4964590;28;20314;-72
2023/03/31 03:38:19;;;;;;;5.30;3.20;;;;;;;11.14;57.17;94839.13;4970938;28;20231;-70
2023/03/31 03:40:45;;;;;;;6.22;3.60;;;;;;;11.17;57.34;94838.81;4962136;28;20331;-69
2023/03/31 03:43:11;;;;;;;9.53;4.07;;;;;;;11.19;57.09;94836.84;4973934;28;20239;-69
2023/03/31 03:45:36;;;;;;;4.80;3.70;;;;;;;11.14;57.33;94829.41;4969108;28;20243;-71
2023/03/31 03:48:02;;;;;;;8.40;4.80;;;;;;;11.01;55.77;94832.53;4964400;28;20232;-66
2023/03/31 03:50:27;;;;;;;6.25;5.07;;;;;;;11.11;56.03;94827.09;4961325;28;20229;-70
2023/03/31 03:52:53;;;;;;;8.45;5.70;;;;;;;11.11;56.62;94839.44;4961926;28;20224;-66
2023/03/31 03:55:18;;;;;;;8.75;5.95;;;;;;;11.17;55.79;94834.38;4965658;28;20224;-69
2023/03/31 03:57:44;;;;;;;9.30;6.82;;;;;;;11.15;55.42;94832.91;4970612;28;20220;-72
2023/03/31 04:00:11;;;;;;;9.68;5.97;;;;;;;11.05;54.99;94840.91;4974007;28;20216;-72
2023/03/31 04:02:37;;;;;;;7.72;5.55;;;;;;;11.13;54.47;94834.84;4968142;28;20228;-67
2023/03/31 04:05:02;;;;;;;6.82;5.93;;;;;;;11.16;55.56;94842.44;4967186;28;20211;-71
2023/03/31 04:07:28;;;;;;;6.65;4.85;;;;;;;11.11;54.45;94845.53;4968528;28;20224;-71
2023/03/31 04:09:53;;;;;;;7.95;4.55;;;;;;;11.18;53.61;94851.00;4972659;28;20225;-71
2023/03/31 04:12:19;;;;;;;4.83;4.10;;;;;;;10.95;54.19;94841.03;4970644;28;20308;-71
2023/03/31 04:14:44;;;;;;;7.30;4.78;;;;;;;11.09;53.79;94839.59;4974971;28;20196;-72
2023/03/31 04:17:14;;;;;;;7.53;4.20;;;;;;;11.15;54.76;94851.31;4967090;28;20216;-70
2023/03/31 04:19:41;;;;;;;7.68;4.82;;;;;;;11.15;55.83;94851.31;4970716;28;20307;-71
2023/03/31 04:22:10;;;;;;;6.03;4.77;;;;;;;11.07;55.31;94848.66;4973436;28;20270;-69
2023/03/31 04:24:37;;;;;;;7.70;5.22;;;;;;;11.08;54.93;94851.13;4975015;28;20232;-72
2023/03/31 04:27:06;;;;;;;10.50;5.32;;;;;;;11.09;54.57;94842.22;4972264;28;20224;-73
2023/03/31 04:29:32;;;;;;;9.77;5.10;;;;;;;11.08;54.47;94845.03;4958856;28;20192;-71
2023/03/31 04:31:58;;;;;;;7.15;4.70;;;;;;;11.12;55.20;94851.59;4955687;28;20193;-67
2023/03/31 04:34:33;;;;;;;6.40;4.85;;;;;;;10.99;54.30;94846.81;4974739;28;20216;-66
2023/03/31 04:37:01;;;;;;;8.15;5.35;;;;;;;11.08;55.03;94845.03;4974204;28;20239;-67
2023/03/31 04:39:29;;;;;;;8.57;5.32;;;;;;;11.14;55.90;94841.75;4994049;28;20241;-69
2023/03/31 04:41:56;;;;;;;6.47;5.35;;;;;;;11.16;55.25;94837.16;4965944;28;20299;-67
2023/03/31 04:44:21;;;;;;;8.18;5.25;;;;;;;11.12;54.12;94841.09;4972170;28;20242;-67
2023/03/31 04:46:47;;;;;;;6.88;5.25;;;;;;;11.10;54.96;94837.81;4993284;28;20221;-67
2023/03/31 04:49:12;;;;;;;8.13;5.25;;;;;;;11.09;55.71;94833.50;4960675;28;20915;-71
2023/03/31 04:51:38;;;;;;;12.75;6.68;;;;;;;11.11;55.12;94835.00;4970151;28;20240;-68
2023/03/31 04:54:04;;;;;;;8.88;5.47;;;;;;;11.22;55.04;94836.50;4968747;28;20228;-71
2023/03/31 04:56:29;;;;;;;7.35;5.07;;;;;;;11.20;54.29;94833.22;4972842;28;20675;-68
2023/03/31 04:58:55;;;;;;;6.82;5.32;;;;;;;11.30;54.67;94833.09;4967470;28;20233;-69
2023/03/31 05:01:20;;;;;;;8.13;4.97;;;;;;;11.17;54.29;94817.75;4963643;28;20312;-72
2023/03/31 05:03:46;;;;;;;10.77;5.10;;;;;;;11.24;54.23;94824.84;4964542;28;20710;-73
2023/03/31 05:06:14;;;;;;;11.47;5.87;;;;;;;11.22;54.03;94823.34;4970518;28;20274;-73
2023/03/31 05:08:39;;;;;;;8.10;5.13;;;;;;;11.25;53.54;94826.50;4970522;28;20200;-67
2023/03/31 05:11:05;;;;;;;9.10;4.97;;;;;;;11.31;53.34;94819.78;4971323;28;20191;-66
2023/03/31 05:13:31;;;;;;;7.20;5.32;;;;;;;11.33;53.43;94822.22;4961487;28;20216;-69
2023/03/31 05:15:57;;;;;;;7.97;4.85;;;;;;;11.26;53.52;94816.81;4969847;28;20307;-69
2023/03/31 05:18:22;;;;;;;8.40;5.07;;;;;;;11.16;54.93;94805.59;4966229;28;20243;-63
2023/03/31 05:20:47;;;;;;;9.00;5.50;;;;;;;11.09;55.59;94808.03;4967272;28;20201;-70
2023/03/31 05:23:14;;;;;;;8.68;5.30;;;;;;;11.09;55.44;94804.56;4956570;28;20185;-69
2023/03/31 05:25:41;;;;;;;9.10;5.13;;;;;;;11.06;54.88;94795.19;4968561;28;20417;-75
2023/03/31 05:28:07;;;;;;;12.20;5.95;;;;;;;11.10;55.47;94795.72;4967886;28;20251;-70
2023/03/31 05:30:33;;;;;;;7.38;4.90;;;;;;;11.24;54.51;94803.78;4972071;28;20220;-68
2023/03/31 05:32:58;;;;;;;9.68;5.53;;;;;;;11.36;54.61;94793.78;4967539;28;20308;-67
2023/03/31 05:35:24;;;;;;;7.40;5.47;;;;;;;11.43;54.60;94797.41;4969658;28;20187;-67
2023/03/31 05:37:49;;;;;;;9.20;5.65;;;;;;;11.39;54.31;94795.28;4970897;28;20351;-70
2023/03/31 05:40:15;;;;;;;8.73;5.88;;;;;;;11.52;54.41;94795.63;4970256;28;20298;-72
2023/03/31 05:42:41;;;;;;;8.02;5.40;;;;;;;11.58;54.51;94788.88;4968168;28;20316;-74
2023/03/31 05:45:08;;;;;;;10.00;6.03;;;;;;;11.34;54.59;94781.78;4967541;28;20252;-66
2023/03/31 05:47:33;;;;;;;9.90;6.30;;;;;;;11.46;54.55;94798.91;4964403;28;20177;-67
2023/03/31 05:49:59;;;;;;;10.90;6.10;;;;;;;11.48;54.50;94789.03;4985381;28;20185;-67
2023/03/31 05:52:25;;;;;;;9.60;6.22;;;;;;;11.49;55.47;94798.56;4968769;28;20756;-67
2023/03/31 05:54:50;;;;;;;8.73;5.95;;;;;;;11.68;54.49;94802.69;4968097;28;20230;-67
2023/03/31 05:57:15;;;;;;;9.75;6.45;;;;;;;11.83;54.13;94808.16;4966882;28;20311;-67
2023/03/31 05:59:41;;;;;;;7.70;6.25;;;;;;;11.90;54.13;94794.19;4968032;28;20292;-67
2023/03/31 06:02:07;;;;;;;12.15;7.10;;;;;;;11.82;53.42;94804.69;4968072;28;20216;-67
2023/03/31 06:04:33;;;;;;;8.15;5.82;;;;;;;11.92;53.30;94796.63;4989972;28;20258;-66
2023/03/31 06:06:58;;;;;;;9.70;6.57;;;;;;;12.05;53.08;94801.41;4991135;28;20248;-67
2023/03/31 06:09:25;;;;;;;12.02;6.72;;;;;;;12.10;52.88;94801.75;4970063;28;20213;-67
2023/03/31 06:11:50;;;;;;;10.77;6.75;;;;;;;12.09;51.94;94808.84;4963105;28;20232;-65
2023/03/31 06:14:16;;;;;;;8.75;6.40;;;;;;;12.16;51.98;94813.44;4960855;28;20184;-64
2023/03/31 06:16:41;;;;;;;10.32;7.22;;;;;;;12.20;51.99;94810.31;4966795;28;20308;-65
2023/03/31 06:19:07;;;;;;;10.57;6.90;;;;;;;12.05;52.30;94801.41;4989398;28;20231;-65
2023/03/31 06:21:33;;;;;;;9.00;6.35;;;;;;;12.08;51.84;94798.44;4960103;28;20228;-69
2023/03/31 06:23:59;;;;;;;10.60;6.55;;;;;;;12.14;51.48;94792.53;4967831;28;20239;-69
2023/03/31 06:26:25;;;;;;;10.93;6.40;;;;;;;12.23;51.78;94799.41;4987477;28;20393;-68
2023/03/31 06:28:50;;;;;;;10.57;6.97;;;;;;;12.22;51.75;94804.88;4997550;28;20247;-69
2023/03/31 06:31:18;;;;;;;14.18;7.80;;;;;;;12.09;51.70;94794.84;4969599;28;20224;-68
2023/03/31 06:33:45;;;;;;;12.40;7.28;;;;;;;12.12;51.88;94802.41;4959565;28;20272;-68
2023/03/31 06:36:13;;;;;;;13.40;7.32;;;;;;;12.31;51.11;94806.50;4949610;28;20306;-67
2023/03/31 06:38:38;;;;;;;11.90;7.97;;;;;;;12.39;51.25;94803.03;4977421;28;20554;-68
2023/03/31 06:41:06;;;;;;;10.27;6.75;;;;;;;12.43;51.06;94802.53;4969145;28;20180;-68
2023/03/31 06:43:32;;;;;;;12.30;6.45;;;;;;;12.31;51.92;94807.31;4968840;28;20220;-68
2023/03/31 06:45:57;;;;;;;8.68;6.03;;;;;;;12.40;50.89;94804.66;4969667;28;20225;-69
2023/03/31 06:48:24;;;;;;;11.82;6.60;;;;;;;12.27;51.64;94795.47;4968586;28;20235;-68
2023/03/31 06:50:50;;;;;;;13.07;6.07;;;;;;;12.18;51.91;94801.72;4966910;28;20236;-68
2023/03/31 06:53:15;;;;;;;14.02;6.85;;;;;;;12.22;51.32;94810.16;4977693;28;20187;-68
2023/03/31 06:55:41;;;;;;;11.90;6.85;;;;;;;12.42;50.99;94810.59;4968948;28;20228;-68
2023/03/31 06:58:06;;;;;;;9.32;6.40;;;;;;;12.48;50.77;94797.59;4964797;28;20298;-67
2023/03/31 07:00:32;;;;;;;11.40;5.75;;;;;;;12.71;50.46;94808.22;4997607;28;20231;-67
2023/03/31 07:02:58;;;;;;;14.30;6.07;;;;;;;12.84;49.69;94797.13;4967733;28;20227;-67
2023/03/31 07:05:26;;;;;;;9.95;5.72;;;;;;;12.97;49.57;94793.94;4969749;28;20208;-67
2023/03/31 07:07:56;;;;;;;10.00;6.22;;;;;;;12.98;49.29;94782.38;4968186;28;20227;-68
2023/03/31 07:10:23;;;;;;;13.77;6.20;;;;;;;13.05;49.22;94778.06;4962787;28;20248;-66
2023/03/31 07:12:49;;;;;;;11.43;6.90;;;;;;;13.03;49.48;94769.50;4991147;28;20231;-69
2023/03/31 07:15:15;;;;;;;13.45;7.43;;;;;;;12.97;49.44;94747.25;4994293;28;20299;-69
2023/03/31 07:17:40;;;;;;;10.68;6.57;;;;;;;13.02;49.49;94768.69;4982162;28;20192;-67
2023/03/31 07:20:13;;;;;;;10.88;7.20;;;;;;;13.17;49.14;94747.63;4997602;28;20180;-67
2023/03/31 07:22:42;;;;;;;15.18;7.03;;;;;;;13.26;48.55;94735.25;4996427;28;20224;-67
2023/03/31 07:25:09;;;;;;;11.70;6.43;;;;;;;13.28;48.23;94738.50;4977810;28;20231;-70
2023/03/31 07:27:35;;;;;;;11.88;6.80;;;;;;;13.39;47.81;94726.72;4966575;28;20228;-69
2023/03/31 07:30:03;;;;;;;15.05;6.78;;;;;;;13.48;47.43;94727.50;4966289;28;20224;-69
2023/03/31 07:32:28;;;;;;;10.48;6.32;;;;;;;13.59;46.66;94727.09;4966590;28;20208;-67
2023/03/31 07:34:54;;;;;;;12.55;6.72;;;;;;;13.56;46.42;94738.00;4990474;28;20263;-68
2023/03/31 07:37:19;;;;;;;12.80;6.85;;;;;;;13.38;46.51;94746.22;4966416;28;20224;-68
2023/03/31 07:39:44;;;;;;;8.50;6.03;;;;;;;13.54;45.66;94745.28;4993854;28;20231;-67
2023/03/31 07:42:10;;;;;;;10.95;6.22;;;;;;;13.58;45.58;94744.75;4991661;28;20217;-71
2023/03/31 07:44:36;;;;;;;13.77;6.40;;;;;;;13.50;45.58;94728.13;4969772;28;20235;-70
2023/03/31 07:47:03;;;;;;;13.55;6.78;;;;;;;13.60;45.95;94710.22;4967928;28;20197;-67
2023/03/31 07:49:33;;;;;;;6.53;4.57;;;;;;;13.71;43.00;94719.56;4967783;28;20252;-68
2023/03/31 07:51:59;;;;;;;6.40;4.65;;;;;;;13.82;42.02;94722.59;4977336;28;20240;-66
2023/03/31 07:54:25;;;;;;;8.63;4.30;;;;;;;13.72;41.77;94710.63;4968002;28;20224;-69
2023/03/31 07:56:50;;;;;;;6.30;5.45;;;;;;;13.76;42.23;94717.19;4965378;28;20259;-68
2023/03/31 07:59:16;;;;;;;11.70;5.15;;;;;;;13.92;41.75;94729.44;4991328;28;20217;-67
2023/03/31 08:01:41;;;;;;;4.90;4.00;;;;;;;14.13;40.46;94727.75;4976876;28;20325;-67
2023/03/31 08:04:08;;;;;;;8.85;4.72;;;;;;;13.94;41.18;94724.81;4971158;28;20228;-68
2023/03/31 08:06:34;;;;;;;4.65;3.80;;;;;;;14.01;40.51;94709.88;4994173;28;20228;-66
2023/03/31 08:08:59;;;;;;;6.82;3.88;;;;;;;14.07;40.91;94704.69;4967436;28;20240;-70
2023/03/31 08:11:25;;;;;;;4.43;3.08;;;;;;;14.42;39.91;94707.63;4964404;28;20176;-66
2023/03/31 08:13:51;;;;;;;6.53;3.40;;;;;;;14.66;38.92;94701.25;4963145;28;20217;-66
2023/03/31 08:16:16;;;;;;;4.50;3.13;;;;;;;14.87;38.02;94704.97;4999154;28;20226;-66
2023/03/31 08:18:42;;;;;;;6.32;3.25;;;;;;;14.82;38.44;94696.75;4970263;28;20232;-66
2023/03/31 08:21:11;;;;;;;6.20;3.58;;;;;;;14.84;37.60;94702.69;4995727;28;20304;-69
2023/03/31 08:23:36;;;;;;;7.88;3.10;;;;;;;14.65;38.43;94696.97;4967492;28;20663;-67
2023/03/31 08:26:18;;;;;;;5.78;3.35;;;;;;;14.51;38.59;94698.59;4963914;28;20188;-70
2023/03/31 08:28:45;;;;;;;5.35;2.70;;;;;;;14.25;38.65;94698.22;4966828;28;20221;-68
2023/03/31 08:31:11;;;;;;;5.57;3.20;;;;;;;14.32;38.81;94691.19;4971470;28;20243;-63
2023/03/31 08:33:37;;;;;;;6.60;2.90;;;;;;;14.42;39.03;94689.09;4973287;28;20254;-72
2023/03/31 08:36:09;;;;;;;5.70;2.75;;;;;;;14.62;38.22;94691.19;4969733;28;20216;-68
2023/03/31 08:38:40;;;;;;;4.07;2.75;;;;;;;14.62;37.90;94689.41;4965464;28;20172;-67
2023/03/31 08:41:13;;;;;;;5.45;2.47;;;;;;;14.70;37.78;94681.34;4968440;28;20242;-68
2023/03/31 08:43:45;;;;;;;6.60;2.90;;;;;;;14.91;36.89;94688.50;4996867;28;20219;-69
2023/03/31 08:46:12;;;;;;;3.85;2.53;;;;;;;14.69;37.38;94700.88;4971491;28;20216;-69
2023/03/31 08:48:53;;;;;;;4.63;2.20;;;;;;;14.80;36.57;94698.75;4966731;28;20228;-69
2023/03/31 08:51:27;;;;;;;4.68;2.20;;;;;;;14.65;37.27;94686.38;4970544;28;20283;-65
2023/03/31 08:54:02;;;;;;;4.10;2.60;;;;;;;14.69;37.21;94686.81;4965235;28;20345;-70
2023/03/31 08:56:29;;;;;;;5.88;2.60;;;;;;;14.68;37.50;94696.59;4961483;28;20180;-70
2023/03/31 08:59:00;;;;;;;7.45;2.28;;;;;;;14.34;37.89;94678.63;4965349;28;20220;-68
2023/03/31 09:01:48;;;;;;;5.15;2.72;;;;;;;14.59;37.54;94675.69;4967830;28;20212;-69
2023/03/31 09:04:31;;;;;;;5.15;2.20;;;;;;;13.98;38.17;94668.75;4963039;28;20224;-67
2023/03/31 09:07:10;;;;;;;3.63;2.00;;;;;;;14.12;37.95;94673.22;4996237;28;20631;-64
2023/03/31 09:09:42;;;;;;;9.13;2.50;;;;;;;13.99;38.26;94682.81;4995143;28;20243;-69
2023/03/31 09:12:18;;;;;;;5.55;2.20;;;;;;;14.08;38.24;94671.13;4979527;28;20224;-69
2023/03/31 09:14:52;;;;;;;7.20;2.17;;;;;;;14.10;37.97;94667.31;4978461;28;20243;-69
2023/03/31 09:17:18;;;;;;;7.53;2.60;;;;;;;14.27;37.74;94664.47;4967443;28;20278;-69
2023/03/31 09:19:55;;;;;;;7.18;2.38;;;;;;;14.34;37.71;94657.44;4995556;28;20334;-69
2023/03/31 09:22:33;;;;;;;3.80;2.10;;;;;;;14.49;37.11;94666.19;4964662;28;20328;-69
2023/03/31 09:25:05;;;;;;;4.97;2.40;;;;;;;14.63;36.92;94659.28;4961305;28;20232;-68
2023/03/31 09:27:36;;;;;;;6.80;2.30;;;;;;;14.84;35.99;94657.69;4978309;28;20232;-67
2023/03/31 09:30:10;;;;;;;4.20;1.83;;;;;;;15.23;35.48;94641.38;4970087;28;20242;-66
2023/03/31 09:32:38;;;;;;;3.78;2.30;;;;;;;15.25;35.93;94662.38;4996984;28;20223;-69
2023/03/31 09:35:24;;;;;;;6.88;2.47;;;;;;;15.47;34.88;94658.69;4966766;28;20175;-71
2023/03/31 09:37:50;;;;;;;3.80;2.35;;;;;;;15.71;34.63;94670.75;4963450;28;20229;-64
2023/03/31 09:40:19;;;;;;;5.80;2.28;;;;;;;15.58;34.90;94676.75;4969051;28;20228;-69
2023/03/31 09:42:50;;;;;;;4.60;2.22;;;;;;;15.92;34.37;94651.34;4982351;28;20221;-70
2023/03/31 09:45:18;;;;;;;6.53;2.40;;;;;;;16.05;34.08;94666.53;4952848;28;20232;-70
2023/03/31 09:47:50;;;;;;;5.32;1.80;;;;;;;16.15;33.79;94645.78;4966417;28;20207;-69
2023/03/31 09:50:17;;;;;;;7.45;2.38;;;;;;;16.44;33.20;94633.25;4954838;28;20244;-70
2023/03/31 09:52:48;;;;;;;5.15;1.70;;;;;;;16.21;33.78;94636.22;4966978;28;20251;-65
2023/03/31 09:55:24;;;;;;;4.05;1.80;;;;;;;16.53;33.31;94653.34;4971234;28;20228;-64
2023/03/31 09:57:49;;;;;;;4.57;2.13;;;;;;;16.32;33.14;94635.66;4959796;28;20221;-70
2023/03/31 10:00:21;;;;;;;4.25;1.83;;;;;;;16.54;33.18;94633.72;4966448;28;20242;-68
2023/03/31 10:02:48;;;;;;;4.95;2.13;;;;;;;16.22;33.47;94641.31;4968123;28;20243;-69
2023/03/31 10:05:31;;;;;;;5.10;2.13;;;;;;;16.51;33.50;94626.16;4993526;28;20205;-70
2023/03/31 10:08:18;;;;;;;5.53;1.60;;;;;;;16.58;33.13;94627.03;4959313;28;20254;-70
2023/03/31 10:10:53;;;;;;;3.33;1.85;;;;;;;16.88;32.68;94616.13;4963459;28;20224;-70
2023/03/31 10:13:23;;;;;;;5.07;2.40;;;;;;;17.10;32.22;94619.44;4960176;28;20236;-70
2023/03/31 10:15:52;;;;;;;3.92;1.88;;;;;;;17.01;32.17;94610.03;4960529;28;20229;-70
2023/03/31 10:18:19;;;;;;;4.32;1.98;;;;;;;17.18;32.17;94608.59;4965190;28;20251;-71
2023/03/31 10:20:51;;;;;;;5.60;2.00;;;;;;;17.06;32.03;94613.72;4968973;28;20212;-70
2023/03/31 10:23:27;;;;;;;8.50;2.00;;;;;;;17.17;32.31;94622.94;4965558;28;20188;-70
2023/03/31 10:25:53;;;;;;;4.22;1.95;;;;;;;16.95;32.12;94612.47;4965603;28;20228;-70
2023/03/31 10:28:20;;;;;;;5.15;1.92;;;;;;;17.13;32.41;94601.28;4965054;28;20263;-72
2023/03/31 10:30:54;;;;;;;8.10;2.47;;;;;;;17.24;32.20;94607.81;4972062;28;20220;-74
2023/03/31 10:33:25;;;;;;;5.68;2.05;;;;;;;17.44;31.75;94586.56;4967666;28;20270;-73
2023/03/31 10:35:56;;;;;;;4.25;2.05;;;;;;;17.34;31.74;94597.59;4966932;28;20221;-73
2023/03/31 10:38:36;;;;;;;4.60;1.90;;;;;;;16.97;32.01;94594.50;4961647;28;20247;-69
2023/03/31 10:41:02;;;;;;;4.43;2.10;;;;;;;17.06;32.02;94584.50;4964936;28;20219;-69
2023/03/31 10:43:34;;;;;;;4.95;2.00;;;;;;;16.82;32.35;94585.06;4969080;28;20338;-67
2023/03/31 10:46:00;;;;;;;3.10;1.88;;;;;;;17.09;32.15;94578.78;4972160;28;20305;-67
2023/03/31 10:48:30;;;;;;;3.08;1.92;;;;;;;17.37;31.78;94575.09;4969211;28;20367;-67
2023/03/31 10:51:16;;;;;;;2.67;1.70;;;;;;;17.57;31.56;94575.09;4991133;28;20232;-66
2023/03/31 10:53:59;;;;;;;5.53;2.17;;;;;;;17.55;31.34;94593.09;4966612;28;20188;-68
2023/03/31 10:56:25;;;;;;;6.55;2.15;;;;;;;17.71;30.58;94571.41;4961131;28;20184;-73
2023/03/31 10:58:53;;;;;;;6.30;2.40;;;;;;;17.81;30.62;94571.03;4968157;28;20230;-73
2023/03/31 11:01:28;;;;;;;6.13;2.10;;;;;;;17.62;31.14;94573.47;5001358;28;20227;-70
2023/03/31 11:03:59;;;;;;;6.85;2.38;;;;;;;17.84;31.02;94581.25;4963870;28;20232;-71
2023/03/31 11:06:54;;;;;;;4.10;1.90;;;;;;;17.75;30.58;94561.16;4962721;28;20224;-70
2023/03/31 11:09:39;;;;;;;3.97;2.10;;;;;;;17.69;31.21;94565.47;4975349;28;20252;-70
2023/03/31 11:12:29;;;;;;;3.17;1.83;;;;;;;17.83;30.68;94564.47;4963285;28;20219;-71
2023/03/31 11:15:02;;;;;;;5.15;2.20;;;;;;;17.84;31.14;94555.47;4961946;28;20220;-70
2023/03/31 11:17:50;;;;;;;4.28;2.50;;;;;;;17.98;31.09;94553.59;4997113;28;20184;-72
2023/03/31 11:20:34;;;;;;;4.18;2.13;;;;;;;18.13;30.12;94549.88;4964196;28;20294;-68
2023/03/31 11:23:27;;;;;;;5.50;2.30;;;;;;;18.16;31.02;94552.13;4996835;28;20224;-71
2023/03/31 11:26:09;;;;;;;5.05;1.85;;;;;;;18.30;30.08;94535.88;4960576;28;20219;-72
2023/03/31 11:28:59;;;;;;;5.05;1.70;;;;;;;18.05;30.39;94529.63;4968803;28;20221;-72
2023/03/31 11:31:27;;;;;;;2.97;2.03;;;;;;;18.26;29.90;94524.03;4979157;28;20323;-72
2023/03/31 11:33:52;;;;;;;3.75;1.95;;;;;;;18.61;29.28;94509.53;4968734;28;20236;-73
2023/03/31 11:36:37;;;;;;;4.57;2.15;;;;;;;18.49;29.76;94518.16;4964178;28;20260;-72
2023/03/31 11:39:26;;;;;;;6.88;2.28;;;;;;;18.62;29.79;94522.63;4965826;28;21489;-71
2023/03/31 11:41:56;;;;;;;4.93;2.17;;;;;;;18.78;29.91;94508.00;4966992;28;20232;-70
2023/03/31 11:44:23;;;;;;;4.55;1.98;;;;;;;19.00;29.39;94521.78;4963422;28;20197;-69
2023/03/31 11:47:00;;;;;;;4.40;2.50;;;;;;;18.77;29.95;94506.38;4966862;28;20299;-72